地図

経路データ

SID SEASON NUMBER BASIN SUBBASIN NAME ISO_TIME NATURE LAT LON WMO_WIND WMO_PRES WMO_AGENCY TRACK_TYPE DIST2LAND LANDFALL IFLAG USA_AGENCY USA_ATCF_ID USA_LAT USA_LON USA_RECORD USA_STATUS USA_WIND USA_PRES USA_SSHS USA_R34_NE USA_R34_SE USA_R34_SW USA_R34_NW USA_R50_NE USA_R50_SE USA_R50_SW USA_R50_NW USA_R64_NE USA_R64_SE USA_R64_SW USA_R64_NW USA_POCI USA_ROCI USA_RMW USA_EYE TOKYO_LAT TOKYO_LON TOKYO_GRADE TOKYO_WIND TOKYO_PRES TOKYO_R50_DIR TOKYO_R50_LONG TOKYO_R50_SHORT TOKYO_R30_DIR TOKYO_R30_LONG TOKYO_R30_SHORT TOKYO_LAND CMA_LAT CMA_LON CMA_CAT CMA_WIND CMA_PRES HKO_LAT HKO_LON HKO_CAT HKO_WIND HKO_PRES NEWDELHI_LAT NEWDELHI_LON NEWDELHI_GRADE NEWDELHI_WIND NEWDELHI_PRES NEWDELHI_CI NEWDELHI_DP NEWDELHI_POCI REUNION_LAT REUNION_LON REUNION_TYPE REUNION_WIND REUNION_PRES REUNION_TNUM REUNION_CI REUNION_RMW REUNION_R34_NE REUNION_R34_SE REUNION_R34_SW REUNION_R34_NW REUNION_R50_NE REUNION_R50_SE REUNION_R50_SW REUNION_R50_NW REUNION_R64_NE REUNION_R64_SE REUNION_R64_SW REUNION_R64_NW BOM_LAT BOM_LON BOM_TYPE BOM_WIND BOM_PRES BOM_TNUM BOM_CI BOM_RMW BOM_R34_NE BOM_R34_SE BOM_R34_SW BOM_R34_NW BOM_R50_NE BOM_R50_SE BOM_R50_SW BOM_R50_NW BOM_R64_NE BOM_R64_SE BOM_R64_SW BOM_R64_NW BOM_ROCI BOM_POCI BOM_EYE BOM_POS_METHOD BOM_PRES_METHOD NADI_LAT NADI_LON NADI_CAT NADI_WIND NADI_PRES WELLINGTON_LAT WELLINGTON_LON WELLINGTON_WIND WELLINGTON_PRES DS824_LAT DS824_LON DS824_STAGE DS824_WIND DS824_PRES TD9636_LAT TD9636_LON TD9636_STAGE TD9636_WIND TD9636_PRES TD9635_LAT TD9635_LON TD9635_WIND TD9635_PRES TD9635_ROCI NEUMANN_LAT NEUMANN_LON NEUMANN_CLASS NEUMANN_WIND NEUMANN_PRES MLC_LAT MLC_LON MLC_CLASS MLC_WIND MLC_PRES USA_GUST BOM_GUST BOM_GUST_PER REUNION_GUST REUNION_GUST_PER USA_SEAHGT USA_SEARAD_NE USA_SEARAD_SE USA_SEARAD_SW USA_SEARAD_NW STORM_SPEED STORM_DIR
1897068S15066 1897 11 SI MM NOT_NAMED 1897-03-09 00:00:00 TS -14.8000 66.3000 main 1087 1048 _________O____ -1 -14.8000 66.3000 TC 8 230
1897068S15066 1897 11 SI MM NOT_NAMED 1897-03-09 03:00:00 TS -15.0501 65.9877 main 1042 1003 _________P____ -1 -15.0501 65.9877 TC 8 229
1897068S15066 1897 11 SI MM NOT_NAMED 1897-03-09 06:00:00 TS -15.3000 65.7000 main 1003 972 _________O____ -1 -15.3000 65.7000 TC 7 226
1897068S15066 1897 11 SI MM NOT_NAMED 1897-03-09 09:00:00 TS -15.5499 65.4499 main 963 927 _________P____ -1 -15.5499 65.4499 TC 7 224
1897068S15066 1897 11 SI MM NOT_NAMED 1897-03-09 12:00:00 TS -15.8000 65.2000 main 927 888 _________O____ -1 -15.8000 65.2000 TC 7 227
1897068S15066 1897 11 SI MM NOT_NAMED 1897-03-09 15:00:00 TS -16.0425 64.8925 main 888 843 _________P____ -1 -16.0425 64.8925 TC 8 229
1897068S15066 1897 11 SI MM NOT_NAMED 1897-03-09 18:00:00 TS -16.3000 64.6000 main 843 808 _________O____ -1 -16.3000 64.6000 TC 8 223
1897068S15066 1897 11 SI MM NOT_NAMED 1897-03-09 21:00:00 TS -16.6000 64.3476 main 799 773 _________P____ -1 -16.6000 64.3476 TC 7 213
1897068S15066 1897 11 SI MM NOT_NAMED 1897-03-10 00:00:00 TS -16.9000 64.2000 main 773 762 _________O____ -1 -16.9000 64.2000 TC 6 195
1897068S15066 1897 11 SI MM NOT_NAMED 1897-03-10 03:00:00 TS -17.1575 64.1974 main 757 752 _________P____ -1 -17.1575 64.1974 TC 5 169
1897068S15066 1897 11 SI MM NOT_NAMED 1897-03-10 06:00:00 TS -17.4000 64.3000 main 756 752 _________O____ -1 -17.4000 64.3000 TC 6 155
1897068S15066 1897 11 SI MM NOT_NAMED 1897-03-10 09:00:00 TS -17.6650 64.4499 main 752 752 _________P____ -1 -17.6650 64.4499 TC 6 150
1897068S15066 1897 11 SI MM NOT_NAMED 1897-03-10 12:00:00 TS -17.9000 64.6000 main 763 759 _________O____ -1 -17.9000 64.6000 TC 5 154
1897068S15066 1897 11 SI MM NOT_NAMED 1897-03-10 15:00:00 TS -18.0725 64.6576 main 765 761 _________P____ -1 -18.0725 64.6576 TC 3 163
1897068S15066 1897 11 SI MM NOT_NAMED 1897-03-10 18:00:00 TS -18.2000 64.7000 main 761 757 _________O____ -1 -18.2000 64.7000 TC 2 151
1897068S15066 1897 11 SI MM NOT_NAMED 1897-03-10 21:00:00 TS -18.2775 64.7776 main 767 767 _________P____ -1 -18.2775 64.7776 TC 3 136
1897068S15066 1897 11 SI MM NOT_NAMED 1897-03-11 00:00:00 TS -18.4000 64.9000 main 774 771 _________O____ -1 -18.4000 64.9000 TC 5 144
1897068S15066 1897 11 SI MM NOT_NAMED 1897-03-11 03:00:00 TS -18.6700 65.0849 main 785 783 _________P____ -1 -18.6700 65.0849 TC 7 148
1897068S15066 1897 11 SI MM NOT_NAMED 1897-03-11 06:00:00 TS -19.0000 65.3000 main 798 796 _________O____ -1 -19.0000 65.3000 TC 7 148
1897068S15066 1897 11 SI MM NOT_NAMED 1897-03-11 09:00:00 TS -19.3000 65.5075 main 813 813 _________P____ -1 -19.3000 65.5075 TC 7 148
1897068S15066 1897 11 SI MM NOT_NAMED 1897-03-11 12:00:00 TS -19.6000 65.7000 main 829 828 _________O____ -1 -19.6000 65.7000 TC 7 152
1897068S15066 1897 11 SI MM NOT_NAMED 1897-03-11 15:00:00 TS -19.9075 65.8576 main 846 845 _________P____ -1 -19.9075 65.8576 TC 7 155
1897068S15066 1897 11 SI MM NOT_NAMED 1897-03-11 18:00:00 TS -20.2000 66.0000 main 855 854 _________O____ -1 -20.2000 66.0000 TC 6 154
1897068S15066 1897 11 SI MM NOT_NAMED 1897-03-11 21:00:00 TS -20.4349 66.1278 main 865 865 _________P____ -1 -20.4349 66.1278 TC 6 151
1897068S15066 1897 11 SI MM NOT_NAMED 1897-03-12 00:00:00 TS -20.7000 66.3000 main 886 886 _________O____ -1 -20.7000 66.3000 TC 8 147
1897068S15066 1897 11 SI MM NOT_NAMED 1897-03-12 03:00:00 TS -21.0850 66.5774 main 919 919 _________P____ -1 -21.0850 66.5774 TC 10 145
1897068S15066 1897 11 SI MM NOT_NAMED 1897-03-12 06:00:00 TS -21.5000 66.9000 main 954 954 _________O____ -1 -21.5000 66.9000 TC 10 143
1897068S15066 1897 11 SI MM NOT_NAMED 1897-03-12 09:00:00 TS -21.8499 67.2002 main 989 989 _________P____ -1 -21.8499 67.2002 TC 9 142
1897068S15066 1897 11 SI MM NOT_NAMED 1897-03-12 12:00:00 TS -22.2000 67.5000 main 1027 1027 _________O____ -1 -22.2000 67.5000 TC 9 143
1897068S15066 1897 11 SI MM NOT_NAMED 1897-03-12 15:00:00 TS -22.5925 67.8076 main 1065 1065 _________P____ -1 -22.5925 67.8076 TC 10 145
1897068S15066 1897 11 SI MM NOT_NAMED 1897-03-12 18:00:00 TS -23.0000 68.1000 main 1105 1105 _________O____ -1 -23.0000 68.1000 TC 10 148
1897068S15066 1897 11 SI MM NOT_NAMED 1897-03-12 21:00:00 TS -23.4025 68.3598 main 1146 1146 _________P____ -1 -23.4025 68.3598 TC 9 150
1897068S15066 1897 11 SI MM NOT_NAMED 1897-03-13 00:00:00 TS -23.8000 68.6000 main 1179 _________O____ -1 -23.8000 68.6000 TC 9 151

IBTrACS Databaseについて

本データベースは、米国NOAAが公開する1842年以降の世界の熱帯低気圧のベストトラックデータアーカイブInternational Best Track Archive for Climate Stewardship (IBTrACS)を、ウェブで閲覧しやすい形式に変換したものです。

最終更新日:2021-10-19